sensor_id;sensor_type;location;lat;lon;timestamp;pressure;altitude;pressure_sealevel;temperature;humidity
45357;BME280;31092;51.924;21.448;2023-02-12T00:00:41;101346.25;;;0.72;100.00
45357;BME280;31092;51.924;21.448;2023-02-12T00:03:06;101443.00;;;1.18;100.00
45357;BME280;31092;51.924;21.448;2023-02-12T00:05:32;101349.19;;;0.66;100.00
45357;BME280;31092;51.924;21.448;2023-02-12T00:07:58;101382.16;;;0.79;100.00
45357;BME280;31092;51.924;21.448;2023-02-12T00:10:24;101450.09;;;1.18;100.00
45357;BME280;31092;51.924;21.448;2023-02-12T00:12:52;101488.53;;;1.28;100.00
45357;BME280;31092;51.924;21.448;2023-02-12T00:15:18;101466.72;;;1.22;100.00
45357;BME280;31092;51.924;21.448;2023-02-12T00:17:43;101436.22;;;0.94;100.00
45357;BME280;31092;51.924;21.448;2023-02-12T00:20:09;101392.47;;;0.66;100.00
45357;BME280;31092;51.924;21.448;2023-02-12T00:22:35;101390.09;;;0.60;100.00
45357;BME280;31092;51.924;21.448;2023-02-12T00:25:00;101382.75;;;0.48;100.00
45357;BME280;31092;51.924;21.448;2023-02-12T00:27:26;101433.19;;;0.65;100.00
45357;BME280;31092;51.924;21.448;2023-02-12T00:29:51;101494.38;;;0.99;100.00
45357;BME280;31092;51.924;21.448;2023-02-12T00:32:17;101437.28;;;0.54;100.00
45357;BME280;31092;51.924;21.448;2023-02-12T00:34:47;101455.63;;;0.58;100.00
45357;BME280;31092;51.924;21.448;2023-02-12T00:37:12;101502.94;;;0.86;100.00
45357;BME280;31092;51.924;21.448;2023-02-12T00:39:38;101471.44;;;0.60;100.00
45357;BME280;31092;51.924;21.448;2023-02-12T00:42:04;101540.28;;;1.01;100.00
45357;BME280;31092;51.924;21.448;2023-02-12T00:44:30;101512.97;;;0.80;100.00
45357;BME280;31092;51.924;21.448;2023-02-12T00:46:55;101535.66;;;0.85;100.00
45357;BME280;31092;51.924;21.448;2023-02-12T00:49:21;101529.72;;;0.80;100.00
45357;BME280;31092;51.924;21.448;2023-02-12T00:51:47;101450.84;;;0.29;100.00
45357;BME280;31092;51.924;21.448;2023-02-12T00:54:13;101489.72;;;0.47;100.00
45357;BME280;31092;51.924;21.448;2023-02-12T00:56:38;101516.59;;;0.58;100.00
45357;BME280;31092;51.924;21.448;2023-02-12T00:59:04;101487.50;;;0.38;100.00
45357;BME280;31092;51.924;21.448;2023-02-12T01:01:29;101438.38;;;0.10;100.00
45357;BME280;31092;51.924;21.448;2023-02-12T01:03:55;101451.50;;;0.13;100.00
45357;BME280;31092;51.924;21.448;2023-02-12T01:06:20;101474.94;;;0.22;100.00
45357;BME280;31092;51.924;21.448;2023-02-12T01:08:49;101471.06;;;0.11;100.00
45357;BME280;31092;51.924;21.448;2023-02-12T01:11:15;101550.09;;;0.61;100.00
45357;BME280;31092;51.924;21.448;2023-02-12T01:13:41;101552.91;;;0.56;100.00
45357;BME280;31092;51.924;21.448;2023-02-12T01:16:12;101541.94;;;0.45;100.00
45357;BME280;31092;51.924;21.448;2023-02-12T01:18:38;101537.59;;;0.44;100.00
45357;BME280;31092;51.924;21.448;2023-02-12T01:21:18;101492.06;;;0.15;100.00
45357;BME280;31092;51.924;21.448;2023-02-12T01:23:45;101595.53;;;0.72;100.00
45357;BME280;31092;51.924;21.448;2023-02-12T01:26:12;101599.81;;;0.75;100.00
45357;BME280;31092;51.924;21.448;2023-02-12T01:28:39;101510.38;;;0.20;100.00
45357;BME280;31092;51.924;21.448;2023-02-12T01:31:10;101499.31;;;0.10;100.00
45357;BME280;31092;51.924;21.448;2023-02-12T01:33:36;101603.97;;;0.61;100.00
45357;BME280;31092;51.924;21.448;2023-02-12T01:36:02;101518.59;;;0.14;100.00
45357;BME280;31092;51.924;21.448;2023-02-12T01:38:27;101541.13;;;0.24;100.00
45357;BME280;31092;51.924;21.448;2023-02-12T01:41:01;101584.22;;;0.48;100.00
45357;BME280;31092;51.924;21.448;2023-02-12T01:43:26;101608.47;;;0.59;100.00
45357;BME280;31092;51.924;21.448;2023-02-12T01:45:52;101584.16;;;0.50;100.00
45357;BME280;31092;51.924;21.448;2023-02-12T01:48:19;101601.72;;;0.52;100.00
45357;BME280;31092;51.924;21.448;2023-02-12T01:50:47;101544.19;;;0.15;100.00
45357;BME280;31092;51.924;21.448;2023-02-12T01:53:17;101609.47;;;0.57;100.00
45357;BME280;31092;51.924;21.448;2023-02-12T01:55:49;101529.53;;;0.06;100.00
45357;BME280;31092;51.924;21.448;2023-02-12T01:58:16;101521.66;;;0.05;100.00
45357;BME280;31092;51.924;21.448;2023-02-12T02:00:42;101503.72;;;-0.09;100.00
45357;BME280;31092;51.924;21.448;2023-02-12T02:03:07;101527.19;;;0.00;100.00
45357;BME280;31092;51.924;21.448;2023-02-12T02:05:53;101632.59;;;0.53;100.00
45357;BME280;31092;51.924;21.448;2023-02-12T02:08:20;101543.94;;;0.01;100.00
45357;BME280;31092;51.924;21.448;2023-02-12T02:10:46;101587.47;;;0.14;100.00
45357;BME280;31092;51.924;21.448;2023-02-12T02:13:12;101650.59;;;0.46;100.00
45357;BME280;31092;51.924;21.448;2023-02-12T02:15:59;101567.81;;;-0.01;100.00
45357;BME280;31092;51.924;21.448;2023-02-12T02:18:43;101684.59;;;0.57;100.00
45357;BME280;31092;51.924;21.448;2023-02-12T02:32:23;101625.75;;;0.07;100.00
45357;BME280;31092;51.924;21.448;2023-02-12T02:34:56;101664.44;;;0.33;100.00
45357;BME280;31092;51.924;21.448;2023-02-12T02:37:35;101705.25;;;0.49;100.00
45357;BME280;31092;51.924;21.448;2023-02-12T02:40:10;101707.97;;;0.47;100.00
45357;BME280;31092;51.924;21.448;2023-02-12T02:42:49;101710.53;;;0.49;100.00
45357;BME280;31092;51.924;21.448;2023-02-12T02:50:29;101639.34;;;-0.01;100.00
45357;BME280;31092;51.924;21.448;2023-02-12T02:53:05;101705.28;;;0.27;100.00
45357;BME280;31092;51.924;21.448;2023-02-12T02:55:42;101739.69;;;0.49;100.00
45357;BME280;31092;51.924;21.448;2023-02-12T02:58:22;101636.63;;;-0.21;100.00
45357;BME280;31092;51.924;21.448;2023-02-12T03:01:02;101667.00;;;-0.08;100.00
45357;BME280;31092;51.924;21.448;2023-02-12T03:03:52;101762.94;;;0.42;100.00
45357;BME280;31092;51.924;21.448;2023-02-12T03:06:31;101785.91;;;0.43;100.00
45357;BME280;31092;51.924;21.448;2023-02-12T03:11:46;101762.66;;;0.28;100.00
45357;BME280;31092;51.924;21.448;2023-02-12T03:14:32;101692.13;;;-0.18;100.00
45357;BME280;31092;51.924;21.448;2023-02-12T03:19:52;101768.41;;;0.17;100.00
45357;BME280;31092;51.924;21.448;2023-02-12T03:22:41;101800.47;;;0.33;100.00
45357;BME280;31092;51.924;21.448;2023-02-12T03:25:11;101816.91;;;0.41;100.00
45357;BME280;31092;51.924;21.448;2023-02-12T03:42:00;101849.09;;;0.32;100.00
45357;BME280;31092;51.924;21.448;2023-02-12T03:44:47;101857.78;;;0.36;100.00
45357;BME280;31092;51.924;21.448;2023-02-12T03:47:18;101877.88;;;0.41;100.00
45357;BME280;31092;51.924;21.448;2023-02-12T03:50:22;101877.03;;;0.41;100.00
45357;BME280;31092;51.924;21.448;2023-02-12T03:52:52;101885.91;;;0.40;100.00
45357;BME280;31092;51.924;21.448;2023-02-12T03:55:17;101766.88;;;-0.34;100.00
45357;BME280;31092;51.924;21.448;2023-02-12T03:57:48;101878.19;;;0.34;100.00
45357;BME280;31092;51.924;21.448;2023-02-12T04:00:19;101865.47;;;0.20;100.00
45357;BME280;31092;51.924;21.448;2023-02-12T04:02:45;101771.31;;;-0.34;100.00
45357;BME280;31092;51.924;21.448;2023-02-12T04:05:26;101780.97;;;-0.33;100.00
45357;BME280;31092;51.924;21.448;2023-02-12T04:07:53;101786.34;;;-0.35;100.00
45357;BME280;31092;51.924;21.448;2023-02-12T04:10:29;101902.16;;;0.31;100.00
45357;BME280;31092;51.924;21.448;2023-02-12T04:13:23;101897.81;;;0.28;100.00
45357;BME280;31092;51.924;21.448;2023-02-12T04:18:38;101908.56;;;0.25;100.00
45357;BME280;31092;51.924;21.448;2023-02-12T04:27:20;101842.09;;;-0.16;100.00
45357;BME280;31092;51.924;21.448;2023-02-12T04:29:56;101892.34;;;0.11;100.00
45357;BME280;31092;51.924;21.448;2023-02-12T04:32:34;101840.50;;;-0.20;100.00
45357;BME280;31092;51.924;21.448;2023-02-12T04:35:30;101881.09;;;0.04;100.00
45357;BME280;31092;51.924;21.448;2023-02-12T04:38:15;101781.84;;;-0.56;100.00
45357;BME280;31092;51.924;21.448;2023-02-12T04:40:43;101768.09;;;-0.66;100.00
45357;BME280;31092;51.924;21.448;2023-02-12T04:43:09;101813.91;;;-0.40;100.00
45357;BME280;31092;51.924;21.448;2023-02-12T04:45:36;101820.97;;;-0.41;100.00
45357;BME280;31092;51.924;21.448;2023-02-12T04:48:02;101906.78;;;0.02;100.00
45357;BME280;31092;51.924;21.448;2023-02-12T04:50:37;101818.50;;;-0.45;100.00
45357;BME280;31092;51.924;21.448;2023-02-12T04:53:03;101909.94;;;0.12;100.00
45357;BME280;31092;51.924;21.448;2023-02-12T04:55:29;101908.16;;;0.12;100.00
45357;BME280;31092;51.924;21.448;2023-02-12T04:57:54;101811.53;;;-0.48;100.00
45357;BME280;31092;51.924;21.448;2023-02-12T05:00:20;101793.63;;;-0.65;100.00
45357;BME280;31092;51.924;21.448;2023-02-12T05:02:45;101858.63;;;-0.33;100.00
45357;BME280;31092;51.924;21.448;2023-02-12T05:05:11;101926.03;;;0.07;100.00
45357;BME280;31092;51.924;21.448;2023-02-12T05:07:36;101906.53;;;-0.15;100.00
45357;BME280;31092;51.924;21.448;2023-02-12T05:10:02;101857.22;;;-0.43;100.00
45357;BME280;31092;51.924;21.448;2023-02-12T05:12:28;101931.69;;;-0.04;100.00
45357;BME280;31092;51.924;21.448;2023-02-12T05:14:53;101850.66;;;-0.56;100.00
45357;BME280;31092;51.924;21.448;2023-02-12T05:17:21;101926.94;;;-0.17;100.00
45357;BME280;31092;51.924;21.448;2023-02-12T05:19:47;101954.78;;;-0.07;100.00
45357;BME280;31092;51.924;21.448;2023-02-12T05:22:12;101883.97;;;-0.51;100.00
45357;BME280;31092;51.924;21.448;2023-02-12T05:24:38;101969.78;;;-0.06;100.00
45357;BME280;31092;51.924;21.448;2023-02-12T05:27:04;101961.50;;;-0.22;100.00
45357;BME280;31092;51.924;21.448;2023-02-12T05:29:30;101990.91;;;-0.05;100.00
45357;BME280;31092;51.924;21.448;2023-02-12T05:31:56;102017.88;;;0.07;100.00
45357;BME280;31092;51.924;21.448;2023-02-12T05:34:21;101992.88;;;-0.10;100.00
45357;BME280;31092;51.924;21.448;2023-02-12T05:36:47;102027.69;;;0.05;100.00
45357;BME280;31092;51.924;21.448;2023-02-12T05:39:12;102026.47;;;0.13;100.00
45357;BME280;31092;51.924;21.448;2023-02-12T05:41:38;102017.28;;;-0.02;100.00
45357;BME280;31092;51.924;21.448;2023-02-12T05:44:04;102018.16;;;-0.01;100.00
45357;BME280;31092;51.924;21.448;2023-02-12T05:46:31;101952.81;;;-0.51;100.00
45357;BME280;31092;51.924;21.448;2023-02-12T05:48:56;101937.38;;;-0.64;100.00
45357;BME280;31092;51.924;21.448;2023-02-12T05:51:24;102067.53;;;0.02;100.00
45357;BME280;31092;51.924;21.448;2023-02-12T05:53:52;102036.97;;;-0.09;100.00
45357;BME280;31092;51.924;21.448;2023-02-12T05:56:28;101966.31;;;-0.58;100.00
45357;BME280;31092;51.924;21.448;2023-02-12T05:58:58;101981.88;;;-0.49;100.00
45357;BME280;31092;51.924;21.448;2023-02-12T06:01:32;101984.25;;;-0.41;100.00
45357;BME280;31092;51.924;21.448;2023-02-12T06:03:59;101992.09;;;-0.38;100.00
45357;BME280;31092;51.924;21.448;2023-02-12T06:06:28;101994.75;;;-0.38;100.00
45357;BME280;31092;51.924;21.448;2023-02-12T06:08:54;101966.91;;;-0.50;100.00
45357;BME280;31092;51.924;21.448;2023-02-12T06:11:20;101981.53;;;-0.40;100.00
45357;BME280;31092;51.924;21.448;2023-02-12T06:13:46;101966.69;;;-0.44;100.00
45357;BME280;31092;51.924;21.448;2023-02-12T06:16:19;102084.50;;;0.21;100.00
45357;BME280;31092;51.924;21.448;2023-02-12T06:18:45;102088.06;;;0.20;100.00
45357;BME280;31092;51.924;21.448;2023-02-12T06:21:10;102015.56;;;-0.28;100.00
45357;BME280;31092;51.924;21.448;2023-02-12T06:23:36;102090.16;;;0.10;100.00
45357;BME280;31092;51.924;21.448;2023-02-12T06:26:01;102063.63;;;-0.13;100.00
45357;BME280;31092;51.924;21.448;2023-02-12T06:28:27;102096.38;;;0.11;100.00
45357;BME280;31092;51.924;21.448;2023-02-12T06:30:52;102011.66;;;-0.42;100.00
45357;BME280;31092;51.924;21.448;2023-02-12T06:33:18;102069.59;;;-0.07;100.00
45357;BME280;31092;51.924;21.448;2023-02-12T06:35:43;102107.81;;;0.11;100.00
45357;BME280;31092;51.924;21.448;2023-02-12T06:38:09;102057.47;;;-0.14;100.00
45357;BME280;31092;51.924;21.448;2023-02-12T06:40:35;101999.66;;;-0.53;100.00
45357;BME280;31092;51.924;21.448;2023-02-12T06:43:00;102038.41;;;-0.25;100.00
45357;BME280;31092;51.924;21.448;2023-02-12T06:45:26;102130.22;;;0.28;100.00
45357;BME280;31092;51.924;21.448;2023-02-12T06:47:51;102049.72;;;-0.20;100.00
45357;BME280;31092;51.924;21.448;2023-02-12T06:50:17;102130.16;;;0.29;100.00
45357;BME280;31092;51.924;21.448;2023-02-12T06:52:43;102046.31;;;-0.23;100.00
45357;BME280;31092;51.924;21.448;2023-02-12T06:55:08;102152.94;;;0.35;100.00
45357;BME280;31092;51.924;21.448;2023-02-12T06:57:34;102045.47;;;-0.24;100.00
45357;BME280;31092;51.924;21.448;2023-02-12T06:59:59;102142.06;;;0.42;100.00
45357;BME280;31092;51.924;21.448;2023-02-12T07:02:25;102025.78;;;-0.17;100.00
45357;BME280;31092;51.924;21.448;2023-02-12T07:04:50;102132.19;;;0.46;100.00
45357;BME280;31092;51.924;21.448;2023-02-12T07:07:16;102065.34;;;0.13;100.00
45357;BME280;31092;51.924;21.448;2023-02-12T07:09:41;102151.97;;;0.62;100.00
45357;BME280;31092;51.924;21.448;2023-02-12T07:12:07;102065.09;;;0.20;100.00
45357;BME280;31092;51.924;21.448;2023-02-12T07:14:33;102046.13;;;0.08;100.00
45357;BME280;31092;51.924;21.448;2023-02-12T07:16:58;101993.28;;;-0.22;100.00
45357;BME280;31092;51.924;21.448;2023-02-12T07:19:28;102064.19;;;0.21;100.00
45357;BME280;31092;51.924;21.448;2023-02-12T07:21:54;102122.09;;;0.57;100.00
45357;BME280;31092;51.924;21.448;2023-02-12T07:24:20;102161.03;;;0.80;100.00
45357;BME280;31092;51.924;21.448;2023-02-12T07:26:45;102071.69;;;0.34;100.00
45357;BME280;31092;51.924;21.448;2023-02-12T07:29:11;102123.72;;;0.61;100.00
45357;BME280;31092;51.924;21.448;2023-02-12T07:31:36;102152.22;;;0.80;100.00
45357;BME280;31092;51.924;21.448;2023-02-12T07:34:02;102074.34;;;0.34;100.00
45357;BME280;31092;51.924;21.448;2023-02-12T07:36:29;102071.50;;;0.38;100.00
45357;BME280;31092;51.924;21.448;2023-02-12T07:38:56;102174.94;;;0.87;100.00
45357;BME280;31092;51.924;21.448;2023-02-12T07:41:24;102059.69;;;0.23;100.00
45357;BME280;31092;51.924;21.448;2023-02-12T07:43:55;102131.19;;;0.50;100.00
45357;BME280;31092;51.924;21.448;2023-02-12T07:46:26;102174.75;;;0.68;100.00
45357;BME280;31092;51.924;21.448;2023-02-12T07:48:55;102177.44;;;0.66;100.00
45357;BME280;31092;51.924;21.448;2023-02-12T07:51:21;102053.31;;;0.04;100.00
45357;BME280;31092;51.924;21.448;2023-02-12T07:53:47;102171.88;;;0.74;100.00
45357;BME280;31092;51.924;21.448;2023-02-12T07:56:18;102083.31;;;0.30;100.00
45357;BME280;31092;51.924;21.448;2023-02-12T07:58:46;102086.66;;;0.35;100.00
45357;BME280;31092;51.924;21.448;2023-02-12T08:01:17;102167.91;;;0.86;100.00
45357;BME280;31092;51.924;21.448;2023-02-12T08:03:43;102140.03;;;0.74;100.00
45357;BME280;31092;51.924;21.448;2023-02-12T08:06:11;102170.44;;;0.89;100.00
45357;BME280;31092;51.924;21.448;2023-02-12T08:08:37;102085.47;;;0.43;100.00
45357;BME280;31092;51.924;21.448;2023-02-12T08:11:07;102082.72;;;0.46;100.00
45357;BME280;31092;51.924;21.448;2023-02-12T08:13:34;102165.66;;;0.99;100.00
45357;BME280;31092;51.924;21.448;2023-02-12T08:16:06;102186.34;;;1.14;100.00
45357;BME280;31092;51.924;21.448;2023-02-12T08:18:32;102136.94;;;1.10;100.00
45357;BME280;31092;51.924;21.448;2023-02-12T08:21:18;102063.41;;;0.90;100.00
45357;BME280;31092;51.924;21.448;2023-02-12T08:23:45;102155.91;;;1.68;100.00
45357;BME280;31092;51.924;21.448;2023-02-12T08:28:49;102113.81;;;1.79;100.00
45357;BME280;31092;51.924;21.448;2023-02-12T08:31:21;102150.22;;;2.20;100.00
45357;BME280;31092;51.924;21.448;2023-02-12T08:33:48;102166.31;;;2.37;100.00
45357;BME280;31092;51.924;21.448;2023-02-12T08:36:16;102092.88;;;2.14;100.00
45357;BME280;31092;51.924;21.448;2023-02-12T08:38:43;102157.59;;;2.74;100.00
45357;BME280;31092;51.924;21.448;2023-02-12T08:41:11;102172.38;;;2.81;100.00
45357;BME280;31092;51.924;21.448;2023-02-12T08:43:38;102190.03;;;3.03;100.00
45357;BME280;31092;51.924;21.448;2023-02-12T08:46:06;102186.72;;;2.77;100.00
45357;BME280;31092;51.924;21.448;2023-02-12T08:48:33;102179.41;;;2.62;100.00
45357;BME280;31092;51.924;21.448;2023-02-12T08:51:06;102212.53;;;2.55;100.00
45357;BME280;31092;51.924;21.448;2023-02-12T08:53:32;102092.03;;;1.71;100.00
45357;BME280;31092;51.924;21.448;2023-02-12T08:55:58;102201.59;;;2.20;100.00
45357;BME280;31092;51.924;21.448;2023-02-12T08:58:23;102132.59;;;1.97;100.00
45357;BME280;31092;51.924;21.448;2023-02-12T09:00:49;102130.66;;;2.00;100.00
45357;BME280;31092;51.924;21.448;2023-02-12T09:03:14;102162.22;;;2.08;100.00
45357;BME280;31092;51.924;21.448;2023-02-12T09:05:40;102192.41;;;2.07;100.00
45357;BME280;31092;51.924;21.448;2023-02-12T09:08:07;102227.94;;;2.26;100.00
45357;BME280;31092;51.924;21.448;2023-02-12T09:10:33;102142.25;;;1.55;100.00
45357;BME280;31092;51.924;21.448;2023-02-12T09:12:59;102212.75;;;1.86;100.00
45357;BME280;31092;51.924;21.448;2023-02-12T09:15:24;102122.91;;;1.52;100.00
45357;BME280;31092;51.924;21.448;2023-02-12T09:17:50;102096.41;;;1.72;100.00
45357;BME280;31092;51.924;21.448;2023-02-12T09:20:16;102157.53;;;2.14;100.00
45357;BME280;31092;51.924;21.448;2023-02-12T09:22:41;102132.78;;;2.12;100.00
45357;BME280;31092;51.924;21.448;2023-02-12T09:25:07;102068.44;;;1.84;100.00
45357;BME280;31092;51.924;21.448;2023-02-12T09:27:32;102146.66;;;2.80;100.00
45357;BME280;31092;51.924;21.448;2023-02-12T09:29:58;102126.03;;;3.23;100.00
45357;BME280;31092;51.924;21.448;2023-02-12T09:32:23;102108.44;;;3.57;100.00
45357;BME280;31092;51.924;21.448;2023-02-12T09:34:49;102188.69;;;4.06;100.00
45357;BME280;31092;51.924;21.448;2023-02-12T09:37:14;102146.28;;;3.27;100.00
45357;BME280;31092;51.924;21.448;2023-02-12T09:39:40;102178.94;;;3.69;100.00
45357;BME280;31092;51.924;21.448;2023-02-12T09:44:52;102240.97;;;4.79;100.00
45357;BME280;31092;51.924;21.448;2023-02-12T09:52:53;102220.16;;;5.68;100.00
45357;BME280;31092;51.924;21.448;2023-02-12T09:55:26;102150.34;;;5.10;100.00
45357;BME280;31092;51.924;21.448;2023-02-12T09:57:53;102226.66;;;5.31;100.00
45357;BME280;31092;51.924;21.448;2023-02-12T10:00:29;102131.09;;;4.37;100.00
45357;BME280;31092;51.924;21.448;2023-02-12T10:03:00;102171.56;;;4.62;100.00
45357;BME280;31092;51.924;21.448;2023-02-12T10:05:33;102262.72;;;4.54;100.00
45357;BME280;31092;51.924;21.448;2023-02-12T10:11:00;102247.66;;;4.53;100.00
45357;BME280;31092;51.924;21.448;2023-02-12T10:16:15;102254.66;;;4.56;100.00
45357;BME280;31092;51.924;21.448;2023-02-12T10:21:42;102247.50;;;3.84;100.00
45357;BME280;31092;51.924;21.448;2023-02-12T10:24:30;102253.06;;;3.42;100.00
45357;BME280;31092;51.924;21.448;2023-02-12T10:27:06;102190.81;;;3.05;100.00
45357;BME280;31092;51.924;21.448;2023-02-12T10:29:37;102222.09;;;3.39;100.00
45357;BME280;31092;51.924;21.448;2023-02-12T10:32:33;102174.19;;;3.19;100.00
45357;BME280;31092;51.924;21.448;2023-02-12T10:35:01;102240.22;;;3.88;100.00
45357;BME280;31092;51.924;21.448;2023-02-12T10:40:24;102190.50;;;4.40;100.00
45357;BME280;31092;51.924;21.448;2023-02-12T10:42:56;102128.91;;;3.93;100.00
45357;BME280;31092;51.924;21.448;2023-02-12T10:45:36;102229.59;;;4.41;100.00
45357;BME280;31092;51.924;21.448;2023-02-12T10:48:20;102234.28;;;4.88;100.00
45357;BME280;31092;51.924;21.448;2023-02-12T10:53:51;102175.81;;;4.14;100.00
45357;BME280;31092;51.924;21.448;2023-02-12T10:56:20;102157.28;;;3.57;100.00
45357;BME280;31092;51.924;21.448;2023-02-12T11:01:19;102161.88;;;3.16;100.00
45357;BME280;31092;51.924;21.448;2023-02-12T11:03:46;102229.00;;;3.43;100.00
45357;BME280;31092;51.924;21.448;2023-02-12T11:06:16;102266.25;;;3.64;100.00
45357;BME280;31092;51.924;21.448;2023-02-12T11:08:42;102182.03;;;3.03;100.00
45357;BME280;31092;51.924;21.448;2023-02-12T11:11:15;102156.94;;;2.88;100.00
45357;BME280;31092;51.924;21.448;2023-02-12T11:13:45;102160.84;;;3.20;100.00
45357;BME280;31092;51.924;21.448;2023-02-12T11:16:13;102170.09;;;3.11;100.00
45357;BME280;31092;51.924;21.448;2023-02-12T11:18:41;102187.56;;;2.98;100.00
45357;BME280;31092;51.924;21.448;2023-02-12T11:21:09;102199.75;;;3.04;100.00
45357;BME280;31092;51.924;21.448;2023-02-12T11:26:33;102242.69;;;3.35;100.00
45357;BME280;31092;51.924;21.448;2023-02-12T11:29:01;102233.50;;;3.22;100.00
45357;BME280;31092;51.924;21.448;2023-02-12T11:31:33;102210.59;;;2.99;100.00
45357;BME280;31092;51.924;21.448;2023-02-12T11:34:17;102144.56;;;2.68;100.00
45357;BME280;31092;51.924;21.448;2023-02-12T11:36:46;102155.50;;;2.81;100.00
45357;BME280;31092;51.924;21.448;2023-02-12T11:41:50;102181.72;;;2.90;100.00
45357;BME280;31092;51.924;21.448;2023-02-12T11:44:20;102138.03;;;2.55;100.00
45357;BME280;31092;51.924;21.448;2023-02-12T11:46:49;102126.34;;;2.59;100.00
45357;BME280;31092;51.924;21.448;2023-02-12T11:49:27;102239.78;;;3.40;100.00
45357;BME280;31092;51.924;21.448;2023-02-12T11:51:54;102241.44;;;3.24;100.00
45357;BME280;31092;51.924;21.448;2023-02-12T11:54:24;102155.22;;;2.68;100.00
45357;BME280;31092;51.924;21.448;2023-02-12T11:56:51;102147.22;;;2.68;100.00
45357;BME280;31092;51.924;21.448;2023-02-12T11:59:33;102239.41;;;3.10;100.00
45357;BME280;31092;51.924;21.448;2023-02-12T12:02:22;102147.91;;;2.53;100.00
45357;BME280;31092;51.924;21.448;2023-02-12T12:04:51;102237.00;;;3.04;100.00
45357;BME280;31092;51.924;21.448;2023-02-12T12:07:23;102144.53;;;2.49;100.00
45357;BME280;31092;51.924;21.448;2023-02-12T12:12:53;102146.56;;;2.43;100.00
45357;BME280;31092;51.924;21.448;2023-02-12T12:15:24;102237.13;;;3.01;100.00
45357;BME280;31092;51.924;21.448;2023-02-12T12:21:19;102120.38;;;2.33;100.00
45357;BME280;31092;51.924;21.448;2023-02-12T12:24:08;102147.66;;;2.38;100.00
45357;BME280;31092;51.924;21.448;2023-02-12T12:26:38;102143.19;;;2.39;100.00
45357;BME280;31092;51.924;21.448;2023-02-12T12:29:23;102168.63;;;2.45;100.00
45357;BME280;31092;51.924;21.448;2023-02-12T12:32:11;102196.72;;;2.72;100.00
45357;BME280;31092;51.924;21.448;2023-02-12T12:34:38;102148.63;;;2.56;100.00
45357;BME280;31092;51.924;21.448;2023-02-12T12:51:05;102203.34;;;3.03;100.00
45357;BME280;31092;51.924;21.448;2023-02-12T13:10:23;102097.25;;;2.35;100.00
45357;BME280;31092;51.924;21.448;2023-02-12T13:23:15;102186.44;;;3.04;100.00
45357;BME280;31092;51.924;21.448;2023-02-12T13:26:02;102169.94;;;2.96;100.00
45357;BME280;31092;51.924;21.448;2023-02-12T13:28:40;102066.47;;;2.30;100.00
45357;BME280;31092;51.924;21.448;2023-02-12T13:31:09;102155.84;;;2.73;100.00
45357;BME280;31092;51.924;21.448;2023-02-12T13:33:41;102179.19;;;2.87;100.00
45357;BME280;31092;51.924;21.448;2023-02-12T13:36:10;102098.84;;;2.39;100.00
45357;BME280;31092;51.924;21.448;2023-02-12T13:38:41;102173.66;;;2.92;100.00
45357;BME280;31092;51.924;21.448;2023-02-12T13:41:11;102113.25;;;2.54;100.00
45357;BME280;31092;51.924;21.448;2023-02-12T13:44:03;102197.22;;;3.01;100.00
45357;BME280;31092;51.924;21.448;2023-02-12T13:46:39;102179.13;;;2.88;100.00
45357;BME280;31092;51.924;21.448;2023-02-12T13:57:35;102192.53;;;3.06;100.00
45357;BME280;31092;51.924;21.448;2023-02-12T14:00:00;102166.25;;;2.98;100.00
45357;BME280;31092;51.924;21.448;2023-02-12T14:05:23;102199.59;;;3.07;100.00
45357;BME280;31092;51.924;21.448;2023-02-12T14:07:49;102196.47;;;2.97;100.00
45357;BME280;31092;51.924;21.448;2023-02-12T14:10:33;102101.53;;;2.38;100.00
45357;BME280;31092;51.924;21.448;2023-02-12T14:13:16;102191.63;;;2.86;100.00
45357;BME280;31092;51.924;21.448;2023-02-12T14:15:47;102088.31;;;2.16;100.00
45357;BME280;31092;51.924;21.448;2023-02-12T14:18:35;102121.44;;;2.29;100.00
45357;BME280;31092;51.924;21.448;2023-02-12T14:23:36;102089.72;;;2.04;100.00
45357;BME280;31092;51.924;21.448;2023-02-12T14:26:11;102173.22;;;2.61;100.00
45357;BME280;31092;51.924;21.448;2023-02-12T14:28:59;102174.03;;;2.63;100.00
45357;BME280;31092;51.924;21.448;2023-02-12T14:39:30;102184.81;;;2.60;100.00
45357;BME280;31092;51.924;21.448;2023-02-12T14:47:48;102092.72;;;1.97;100.00
45357;BME280;31092;51.924;21.448;2023-02-12T14:50:40;102174.38;;;2.35;100.00
45357;BME280;31092;51.924;21.448;2023-02-12T14:53:33;102190.31;;;2.35;100.00
45357;BME280;31092;51.924;21.448;2023-02-12T14:56:00;102057.44;;;1.51;100.00
45357;BME280;31092;51.924;21.448;2023-02-12T14:58:27;102100.97;;;1.68;100.00
45357;BME280;31092;51.924;21.448;2023-02-12T15:00:56;102180.84;;;2.08;100.00
45357;BME280;31092;51.924;21.448;2023-02-12T15:06:27;102192.53;;;2.04;100.00
45357;BME280;31092;51.924;21.448;2023-02-12T15:09:07;102097.91;;;1.35;100.00
45357;BME280;31092;51.924;21.448;2023-02-12T15:11:44;102194.81;;;1.69;100.00
45357;BME280;31092;51.924;21.448;2023-02-12T15:14:16;102179.75;;;1.70;100.00
45357;BME280;31092;51.924;21.448;2023-02-12T15:19:36;102171.84;;;1.46;100.00
45357;BME280;31092;51.924;21.448;2023-02-12T15:22:25;102118.50;;;1.07;100.00
45357;BME280;31092;51.924;21.448;2023-02-12T15:24:52;102201.94;;;1.45;100.00
45357;BME280;31092;51.924;21.448;2023-02-12T15:27:18;102181.50;;;1.25;100.00
45357;BME280;31092;51.924;21.448;2023-02-12T15:29:47;102184.69;;;1.10;100.00
45357;BME280;31092;51.924;21.448;2023-02-12T15:32:33;102207.28;;;1.22;100.00